createdAt,value
2022-12-18T00:00:08.238Z,94179.66
2022-12-18T00:02:41.827Z,94190.00
2022-12-18T00:05:10.116Z,94193.84
2022-12-18T00:07:38.324Z,94195.47
2022-12-18T00:10:06.921Z,94203.38
2022-12-18T00:12:34.912Z,94206.09
2022-12-18T00:15:02.799Z,94205.72
2022-12-18T00:17:30.762Z,94212.44
2022-12-18T00:19:58.802Z,94208.41
2022-12-18T00:22:26.811Z,94219.69
2022-12-18T00:24:54.610Z,94223.44
2022-12-18T00:27:22.595Z,94224.03
2022-12-18T00:29:50.772Z,94218.50
2022-12-18T00:32:18.703Z,94232.47
2022-12-18T00:34:46.638Z,94222.19
2022-12-18T00:37:19.734Z,94233.13
2022-12-18T00:39:52.225Z,94240.50
2022-12-18T00:42:40.014Z,94241.72
2022-12-18T00:45:12.574Z,94238.56
2022-12-18T00:47:41.301Z,94238.56
2022-12-18T00:50:10.288Z,94240.03
2022-12-18T00:52:38.257Z,94241.66
2022-12-18T00:55:09.575Z,94231.72
2022-12-18T00:57:37.710Z,94240.41
2022-12-18T01:00:07.501Z,94244.72
2022-12-18T01:02:36.583Z,94240.91
2022-12-18T01:05:05.720Z,94241.75
2022-12-18T01:07:35.413Z,94243.50
2022-12-18T01:10:07.546Z,94244.59
2022-12-18T01:12:36.896Z,94239.97
2022-12-18T01:15:06.449Z,94246.28
2022-12-18T01:17:35.136Z,94246.47
2022-12-18T01:20:05.475Z,94242.25
2022-12-18T01:22:34.233Z,94259.31
2022-12-18T01:25:02.653Z,94254.00
2022-12-18T01:27:31.093Z,94259.19
2022-12-18T01:29:58.927Z,94249.28
2022-12-18T01:32:30.325Z,94259.22
2022-12-18T01:34:58.438Z,94251.75
2022-12-18T01:37:28.638Z,94267.22
2022-12-18T01:39:56.737Z,94268.47
2022-12-18T01:42:24.873Z,94262.78
2022-12-18T01:45:06.313Z,94265.00
2022-12-18T01:47:45.761Z,94267.06
2022-12-18T01:50:19.638Z,94275.50
2022-12-18T01:52:55.141Z,94274.88
2022-12-18T01:55:26.408Z,94279.78
2022-12-18T01:57:57.759Z,94281.03
2022-12-18T02:00:29.183Z,94285.28
2022-12-18T02:02:57.418Z,94277.75
2022-12-18T02:05:56.842Z,94281.03
2022-12-18T02:08:38.924Z,94295.50
2022-12-18T02:11:30.295Z,94295.75
2022-12-18T02:14:38.799Z,94295.53
2022-12-18T02:17:19.335Z,94291.84
2022-12-18T02:20:02.874Z,94306.56
2022-12-18T02:22:32.111Z,94300.03
2022-12-18T02:25:22.599Z,94301.06
2022-12-18T02:27:52.730Z,94305.97
2022-12-18T02:30:23.071Z,94298.22
2022-12-18T02:32:54.492Z,94315.13
2022-12-18T02:35:26.184Z,94315.50
2022-12-18T02:37:56.873Z,94320.41
2022-12-18T02:40:28.763Z,94325.72
2022-12-18T02:43:14.855Z,94312.66
2022-12-18T02:45:53.932Z,94313.25
2022-12-18T02:48:27.186Z,94311.22
2022-12-18T02:51:09.824Z,94312.03
2022-12-18T02:53:40.973Z,94312.03
2022-12-18T02:56:16.944Z,94320.22
2022-12-18T03:00:42.753Z,94324.28
2022-12-18T03:03:31.328Z,94324.66
2022-12-18T03:06:05.656Z,94330.97
2022-12-18T03:08:39.796Z,94328.31
2022-12-18T03:11:13.900Z,94331.56
2022-12-18T03:13:48.895Z,94331.41
2022-12-18T03:16:26.791Z,94332.22
2022-12-18T03:19:05.348Z,94336.50
2022-12-18T03:21:39.618Z,94339.75
2022-12-18T03:24:10.687Z,94347.72
2022-12-18T03:26:44.020Z,94345.25
2022-12-18T03:29:27.893Z,94343.84
2022-12-18T03:32:16.974Z,94349.94
2022-12-18T03:34:48.847Z,94353.63
2022-12-18T03:37:18.223Z,94361.16
2022-12-18T03:39:47.514Z,94364.63
2022-12-18T03:42:33.827Z,94367.50
2022-12-18T03:51:12.370Z,94385.19
2022-12-18T03:53:40.616Z,94400.66
2022-12-18T03:56:10.446Z,94396.19
2022-12-18T03:58:44.925Z,94391.69
2022-12-18T04:01:21.329Z,94396.56
2022-12-18T04:03:51.309Z,94395.94
2022-12-18T04:06:22.397Z,94400.25
2022-12-18T04:08:50.540Z,94403.72
2022-12-18T04:11:22.391Z,94392.50
2022-12-18T04:13:50.480Z,94410.00
2022-12-18T04:16:26.161Z,94404.31
2022-12-18T04:18:57.297Z,94414.19
2022-12-18T04:21:27.408Z,94408.88
2022-12-18T04:23:55.564Z,94416.97
2022-12-18T04:26:24.643Z,94418.97
2022-12-18T04:29:15.868Z,94437.22
2022-12-18T04:31:43.942Z,94423.72
2022-12-18T04:34:12.733Z,94419.03
2022-12-18T04:36:49.194Z,94419.66
2022-12-18T04:39:17.865Z,94431.22
2022-12-18T04:41:46.510Z,94422.88
2022-12-18T04:44:15.593Z,94435.53
2022-12-18T04:46:44.973Z,94442.22
2022-12-18T04:49:13.610Z,94441.25
2022-12-18T04:51:44.042Z,94451.84
2022-12-18T04:54:12.021Z,94455.25
2022-12-18T04:56:40.977Z,94459.75
2022-12-18T04:59:08.834Z,94462.75
2022-12-18T05:01:37.009Z,94468.03
2022-12-18T05:04:05.239Z,94458.84
2022-12-18T05:06:33.161Z,94459.00
2022-12-18T05:09:01.471Z,94469.75
2022-12-18T05:11:29.359Z,94472.63
2022-12-18T05:13:57.234Z,94480.41
2022-12-18T05:16:25.148Z,94481.03
2022-12-18T05:18:53.284Z,94483.06
2022-12-18T05:21:21.376Z,94486.56
2022-12-18T05:23:49.273Z,94495.09
2022-12-18T05:26:18.988Z,94495.69
2022-12-18T05:28:47.240Z,94500.06
2022-12-18T05:31:15.945Z,94495.97
2022-12-18T05:33:44.247Z,94505.78
2022-12-18T05:36:12.934Z,94520.38
2022-12-18T05:38:41.229Z,94514.44
2022-12-18T05:41:10.512Z,94511.28
2022-12-18T05:43:40.702Z,94522.44
2022-12-18T05:46:13.521Z,94513.69
2022-12-18T05:48:42.736Z,94526.97
2022-12-18T05:51:17.036Z,94527.97
2022-12-18T05:53:45.356Z,94523.88
2022-12-18T05:56:21.261Z,94525.88
2022-12-18T05:58:54.173Z,94528.53
2022-12-18T06:01:26.146Z,94529.88
2022-12-18T06:03:54.250Z,94521.03
2022-12-18T06:06:27.772Z,94534.97
2022-12-18T06:08:56.801Z,94525.56
2022-12-18T06:11:27.623Z,94539.94
2022-12-18T06:13:59.160Z,94538.78
2022-12-18T06:16:31.152Z,94549.13
2022-12-18T06:19:01.007Z,94547.75
2022-12-18T06:21:44.464Z,94548.94
2022-12-18T06:24:12.556Z,94557.00
2022-12-18T06:26:40.710Z,94556.72
2022-12-18T06:29:08.740Z,94560.41
2022-12-18T06:31:36.872Z,94559.41
2022-12-18T06:34:05.570Z,94564.47
2022-12-18T06:36:33.642Z,94560.66
2022-12-18T06:39:01.716Z,94566.72
2022-12-18T06:41:29.855Z,94567.31
2022-12-18T06:44:00.108Z,94572.38
2022-12-18T06:46:28.460Z,94583.72
2022-12-18T06:48:56.333Z,94581.16
2022-12-18T06:51:25.348Z,94590.66
2022-12-18T06:53:53.348Z,94588.59
2022-12-18T06:56:21.643Z,94589.53
2022-12-18T06:58:50.252Z,94597.13
2022-12-18T07:01:18.494Z,94602.75
2022-12-18T07:03:46.828Z,94608.16
2022-12-18T07:06:17.111Z,94611.00
2022-12-18T07:08:46.648Z,94624.19
2022-12-18T07:11:15.106Z,94616.53
2022-12-18T07:13:43.484Z,94625.97
2022-12-18T07:16:22.573Z,94629.47
2022-12-18T07:18:55.361Z,94605.69
2022-12-18T07:21:25.217Z,94619.88
2022-12-18T07:23:53.303Z,94617.03
2022-12-18T07:26:22.700Z,94617.03
2022-12-18T07:28:51.169Z,94628.09
2022-12-18T07:31:22.262Z,94621.00
2022-12-18T07:33:51.629Z,94620.78
2022-12-18T07:36:20.399Z,94620.03
2022-12-18T07:38:53.612Z,94628.69
2022-12-18T07:41:21.881Z,94639.13
2022-12-18T07:43:49.962Z,94639.56
2022-12-18T07:46:19.599Z,94628.78
2022-12-18T07:48:49.765Z,94643.63
2022-12-18T07:51:19.729Z,94645.47
2022-12-18T07:53:49.345Z,94645.19
2022-12-18T07:56:30.560Z,94654.34
2022-12-18T07:59:00.861Z,94647.44
2022-12-18T08:01:29.024Z,94666.06
2022-12-18T08:03:58.389Z,94668.72
2022-12-18T08:06:27.002Z,94670.38
2022-12-18T08:08:59.635Z,94662.38
2022-12-18T08:11:29.506Z,94674.63
2022-12-18T08:13:58.737Z,94657.06
2022-12-18T08:16:26.838Z,94675.16
2022-12-18T08:18:55.942Z,94680.66
2022-12-18T08:21:29.702Z,94681.34
2022-12-18T08:24:00.855Z,94686.81
2022-12-18T08:26:31.733Z,94697.19
2022-12-18T08:29:01.802Z,94696.88
2022-12-18T08:31:32.042Z,94703.06
2022-12-18T08:34:00.638Z,94698.06
2022-12-18T08:36:29.198Z,94705.78
2022-12-18T08:38:58.030Z,94704.63
2022-12-18T08:41:26.981Z,94699.72
2022-12-18T08:44:14.127Z,94700.84
2022-12-18T08:46:44.772Z,94700.09
2022-12-18T08:49:13.372Z,94700.16
2022-12-18T08:51:41.842Z,94697.16
2022-12-18T08:54:14.481Z,94694.44
2022-12-18T08:56:42.492Z,94674.97
2022-12-18T08:59:17.333Z,94693.41
2022-12-18T09:01:48.281Z,94703.88
2022-12-18T09:04:16.351Z,94699.22
2022-12-18T09:06:44.707Z,94693.88
2022-12-18T09:09:13.720Z,94691.28
2022-12-18T09:11:42.130Z,94657.50
2022-12-18T09:14:11.332Z,94694.72
2022-12-18T09:16:39.819Z,94695.38
2022-12-18T09:19:08.530Z,94691.41
2022-12-18T09:21:47.777Z,94700.38
2022-12-18T09:24:16.979Z,94701.97
2022-12-18T09:26:47.083Z,94698.28
2022-12-18T09:29:18.837Z,94700.94
2022-12-18T09:31:48.246Z,94697.31
2022-12-18T09:34:17.947Z,94693.88
2022-12-18T09:36:46.455Z,94688.72
2022-12-18T09:39:16.322Z,94691.81
2022-12-18T09:41:55.094Z,94696.81
2022-12-18T09:44:31.670Z,94690.13
2022-12-18T09:47:24.801Z,94692.59
2022-12-18T09:50:01.425Z,94695.25
2022-12-18T10:01:13.367Z,94687.22
2022-12-18T10:03:41.952Z,94691.88
2022-12-18T10:06:20.368Z,94687.03
2022-12-18T10:08:53.285Z,94686.78
2022-12-18T10:11:49.351Z,94692.56
2022-12-18T10:14:45.476Z,94676.16
2022-12-18T10:17:42.292Z,94686.47
2022-12-18T10:20:29.338Z,94695.66
2022-12-18T10:23:15.871Z,94685.66
2022-12-18T10:26:02.038Z,94694.72
2022-12-18T10:28:32.758Z,94692.59
2022-12-18T10:31:01.322Z,94685.38
2022-12-18T10:33:32.832Z,94692.84
2022-12-18T10:36:01.561Z,94701.75
2022-12-18T10:38:31.877Z,94700.22
2022-12-18T10:41:01.601Z,94693.13
2022-12-18T10:43:37.844Z,94681.66
2022-12-18T10:46:08.656Z,94689.16
2022-12-18T10:48:48.698Z,94689.03
2022-12-18T10:51:29.570Z,94691.81
2022-12-18T10:54:13.725Z,94685.25
2022-12-18T10:56:42.562Z,94690.03
2022-12-18T10:59:14.956Z,94679.50
2022-12-18T11:01:59.502Z,94681.22
2022-12-18T11:04:30.362Z,94693.81
2022-12-18T11:07:10.092Z,94690.72
2022-12-18T11:09:40.932Z,94686.13
2022-12-18T11:12:11.786Z,94678.88
2022-12-18T11:14:46.744Z,94681.66
2022-12-18T11:17:42.803Z,94691.41
2022-12-18T11:20:40.327Z,94681.16
2022-12-18T11:23:14.605Z,94670.56
2022-12-18T11:25:57.017Z,94690.66
2022-12-18T11:28:33.062Z,94702.50
2022-12-18T11:31:25.796Z,94703.19
2022-12-18T11:34:28.142Z,94704.50
2022-12-18T11:36:54.428Z,94711.44
2022-12-18T11:39:56.561Z,94705.28
2022-12-18T11:42:47.161Z,94710.06
2022-12-18T11:45:15.986Z,94711.44
2022-12-18T11:47:55.925Z,94717.75
2022-12-18T11:50:39.318Z,94712.72
2022-12-18T11:53:12.575Z,94717.63
2022-12-18T11:56:27.618Z,94717.31
2022-12-18T11:59:11.513Z,94711.22
2022-12-18T12:02:15.379Z,94710.78
2022-12-18T12:05:12.103Z,94705.72
2022-12-18T12:08:14.468Z,94705.72
2022-12-18T12:11:03.728Z,94703.34
2022-12-18T12:13:44.360Z,94705.06
2022-12-18T12:16:23.851Z,94705.94
2022-12-18T12:19:15.536Z,94700.03
2022-12-18T12:21:53.089Z,94705.25
2022-12-18T12:24:46.079Z,94699.03
2022-12-18T12:27:20.623Z,94693.75
2022-12-18T12:30:27.300Z,94694.03
2022-12-18T12:33:11.037Z,94701.00
2022-12-18T12:36:09.764Z,94696.78
2022-12-18T12:38:53.790Z,94706.47
2022-12-18T12:41:46.056Z,94704.19
2022-12-18T12:44:23.548Z,94702.84
2022-12-18T12:46:56.393Z,94719.69
2022-12-18T12:49:30.726Z,94711.41
2022-12-18T12:52:13.828Z,94722.34
2022-12-18T12:54:43.275Z,94723.16
2022-12-18T12:57:24.800Z,94729.56
2022-12-18T13:00:09.388Z,94726.34
2022-12-18T13:02:55.639Z,94716.47
2022-12-18T13:05:31.319Z,94724.22
2022-12-18T13:08:09.223Z,94731.06
2022-12-18T13:10:43.482Z,94734.16
2022-12-18T13:13:23.333Z,94735.44
2022-12-18T13:16:08.123Z,94742.09
2022-12-18T13:18:40.402Z,94739.88
2022-12-18T13:21:35.881Z,94742.84
2022-12-18T13:24:24.816Z,94731.56
2022-12-18T13:26:53.383Z,94753.94
2022-12-18T13:29:47.406Z,94758.09
2022-12-18T13:32:27.590Z,94760.94
2022-12-18T13:35:21.054Z,94712.91
2022-12-18T13:37:55.524Z,94749.91
2022-12-18T13:40:51.632Z,94759.00
2022-12-18T13:43:20.642Z,94759.06
2022-12-18T13:46:14.752Z,94774.19
2022-12-18T13:48:56.394Z,94775.94
2022-12-18T13:51:26.168Z,94780.59
2022-12-18T13:54:04.459Z,94779.78
2022-12-18T13:56:35.543Z,94784.47
2022-12-18T13:59:18.583Z,94787.94
2022-12-18T14:02:02.297Z,94791.22
2022-12-18T14:04:35.861Z,94793.53
2022-12-18T14:07:07.273Z,94792.88
2022-12-18T14:09:41.561Z,94782.50
2022-12-18T14:12:49.647Z,94788.94
2022-12-18T14:15:31.697Z,94796.78
2022-12-18T14:18:14.287Z,94798.94
2022-12-18T14:20:50.664Z,94793.88
2022-12-18T14:23:39.444Z,94791.31
2022-12-18T14:26:40.263Z,94799.31
2022-12-18T14:29:29.647Z,94802.53
2022-12-18T14:32:18.889Z,94799.69
2022-12-18T14:34:47.672Z,94798.06
2022-12-18T14:37:19.289Z,94798.44
2022-12-18T14:39:59.356Z,94810.91
2022-12-18T14:42:31.249Z,94806.00
2022-12-18T14:45:41.607Z,94809.19
2022-12-18T14:48:23.092Z,94807.88
2022-12-18T14:51:04.055Z,94794.88
2022-12-18T14:53:35.272Z,94813.63
2022-12-18T14:56:13.583Z,94809.03
2022-12-18T14:58:47.961Z,94809.03
2022-12-18T15:01:41.081Z,94815.69
2022-12-18T15:04:29.700Z,94812.84
2022-12-18T15:07:25.467Z,94814.19
2022-12-18T15:10:14.734Z,94812.47
2022-12-18T15:12:45.973Z,94815.56
2022-12-18T15:15:39.326Z,94814.63
2022-12-18T15:18:13.656Z,94816.66
2022-12-18T15:21:00.494Z,94814.09
2022-12-18T15:23:53.699Z,94816.63
2022-12-18T15:26:23.618Z,94815.59
2022-12-18T15:28:53.194Z,94810.69
2022-12-18T15:31:33.157Z,94819.25
2022-12-18T15:34:21.962Z,94820.56
2022-12-18T15:36:52.872Z,94832.31
2022-12-18T15:39:21.447Z,94837.16
2022-12-18T15:42:08.926Z,94837.91
2022-12-18T15:44:38.670Z,94841.72
2022-12-18T15:47:13.856Z,94843.34
2022-12-18T15:49:42.437Z,94850.19
2022-12-18T15:52:26.187Z,94856.00
2022-12-18T16:00:41.096Z,94870.69
2022-12-18T16:03:11.190Z,94863.75
2022-12-18T16:05:39.859Z,94873.59
2022-12-18T16:08:08.279Z,94866.22
2022-12-18T16:10:36.417Z,94871.44
2022-12-18T16:13:04.772Z,94863.84
2022-12-18T16:15:33.101Z,94869.03
2022-12-18T16:18:01.874Z,94869.78
2022-12-18T16:20:30.251Z,94873.06
2022-12-18T16:22:59.157Z,94880.09
2022-12-18T16:25:29.233Z,94887.53
2022-12-18T16:27:58.359Z,94882.09
2022-12-18T16:30:33.672Z,94891.44
2022-12-18T16:33:07.698Z,94898.75
2022-12-18T16:35:38.455Z,94888.69
2022-12-18T16:38:07.060Z,94909.19
2022-12-18T16:40:55.307Z,94909.63
2022-12-18T16:43:23.365Z,94910.91
2022-12-18T16:45:51.605Z,94912.41
2022-12-18T16:48:20.350Z,94913.59
2022-12-18T16:50:48.327Z,94923.16
2022-12-18T16:53:16.344Z,94917.34
2022-12-18T16:55:45.134Z,94920.22
2022-12-18T16:58:13.083Z,94926.19
2022-12-18T17:00:41.447Z,94913.97
2022-12-18T17:03:10.065Z,94933.03
2022-12-18T17:05:38.691Z,94932.41
2022-12-18T17:08:07.481Z,94934.34
2022-12-18T17:10:36.771Z,94940.66
2022-12-18T17:13:05.688Z,94934.41
2022-12-18T17:15:37.755Z,94945.56
2022-12-18T17:18:06.526Z,94952.13
2022-12-18T17:20:35.363Z,94952.72
2022-12-18T17:23:03.817Z,94960.28
2022-12-18T17:25:32.295Z,94953.72
2022-12-18T17:28:01.259Z,94967.06
2022-12-18T17:30:30.428Z,94971.41
2022-12-18T17:32:58.546Z,94967.38
2022-12-18T17:35:26.745Z,94969.72
2022-12-18T17:37:55.097Z,94970.13
2022-12-18T17:40:24.401Z,94966.19
2022-12-18T17:42:54.140Z,94972.00
2022-12-18T17:45:23.221Z,94970.69
2022-12-18T17:47:56.765Z,94969.50
2022-12-18T17:50:28.310Z,94964.34
2022-12-18T17:52:57.672Z,94970.09
2022-12-18T17:55:26.748Z,94978.38
2022-12-18T17:57:55.352Z,94979.72
2022-12-18T18:00:23.794Z,94970.78
2022-12-18T18:02:52.868Z,94969.59
2022-12-18T18:05:21.358Z,94961.22
2022-12-18T18:07:50.430Z,94965.06
2022-12-18T18:10:20.897Z,94975.19
2022-12-18T18:13:07.218Z,94974.66
2022-12-18T18:15:36.052Z,94977.81
2022-12-18T18:18:06.313Z,94982.41
2022-12-18T18:20:39.521Z,94981.69
2022-12-18T18:23:07.730Z,94983.63
2022-12-18T18:25:38.609Z,94994.44
2022-12-18T18:28:07.112Z,94999.97
2022-12-18T18:30:37.062Z,94986.59
2022-12-18T18:33:10.338Z,94984.91
2022-12-18T18:35:59.112Z,94993.09
2022-12-18T18:38:29.571Z,94998.88
2022-12-18T18:41:02.980Z,94987.66
2022-12-18T18:43:31.309Z,94993.19
2022-12-18T18:46:01.124Z,94999.34
2022-12-18T18:48:33.784Z,94993.75
2022-12-18T18:51:11.250Z,94997.47
2022-12-18T18:53:44.410Z,94994.34
2022-12-18T18:56:45.490Z,95001.22
2022-12-18T18:59:03.685Z,94993.34
2022-12-18T19:01:32.029Z,94997.22
2022-12-18T19:04:03.074Z,95001.41
2022-12-18T19:06:31.532Z,94996.00
2022-12-18T19:09:03.624Z,95003.69
2022-12-18T19:11:51.838Z,95008.56
2022-12-18T19:14:23.349Z,95017.16
2022-12-18T19:16:52.192Z,95012.38
2022-12-18T19:19:21.422Z,94998.97
2022-12-18T19:21:50.601Z,95019.19
2022-12-18T19:24:22.619Z,95027.91
2022-12-18T19:26:52.617Z,95023.06
2022-12-18T19:29:25.113Z,95030.13
2022-12-18T19:31:53.535Z,95011.88
2022-12-18T19:34:22.332Z,95028.28
2022-12-18T19:36:56.539Z,95033.03
2022-12-18T19:39:28.266Z,95031.81
2022-12-18T19:41:56.704Z,95035.00
2022-12-18T19:44:25.325Z,95038.91
2022-12-18T19:46:53.882Z,95039.06
2022-12-18T19:49:22.608Z,95038.63
2022-12-18T19:51:51.158Z,95033.13
2022-12-18T19:54:19.564Z,95033.47
2022-12-18T19:56:48.177Z,95029.41
2022-12-18T19:59:16.691Z,95041.13
2022-12-18T20:01:45.201Z,95038.34
2022-12-18T20:04:13.797Z,95051.69
2022-12-18T20:06:53.983Z,95053.66
2022-12-18T20:09:22.638Z,95054.31
2022-12-18T20:11:51.238Z,95058.97
2022-12-18T20:14:23.400Z,95061.81
2022-12-18T20:16:53.504Z,95053.41
2022-12-18T20:19:22.681Z,95057.81
2022-12-18T20:21:51.552Z,95061.81
2022-12-18T20:24:19.710Z,95056.34
2022-12-18T20:26:48.059Z,95055.91
2022-12-18T20:29:16.354Z,95065.06
2022-12-18T20:31:45.080Z,95073.00
2022-12-18T20:34:13.590Z,95072.53
2022-12-18T20:36:42.129Z,95078.63
2022-12-18T20:39:12.216Z,95080.59
2022-12-18T20:41:41.460Z,95075.16
2022-12-18T20:44:22.334Z,95077.50
2022-12-18T20:47:00.783Z,95081.28
2022-12-18T20:49:33.441Z,95079.97
2022-12-18T20:52:03.604Z,95088.22
2022-12-18T20:54:32.244Z,95083.25
2022-12-18T20:57:00.292Z,95090.47
2022-12-18T20:59:28.510Z,95090.66
2022-12-18T21:01:56.504Z,95098.72
2022-12-18T21:04:25.320Z,95102.50
2022-12-18T21:06:59.274Z,95106.78
2022-12-18T21:09:37.410Z,95104.13
2022-12-18T21:12:34.892Z,95097.72
2022-12-18T21:15:11.667Z,95110.31
2022-12-18T21:17:44.398Z,95107.53
2022-12-18T21:20:17.610Z,95108.72
2022-12-18T21:22:47.272Z,95102.94
2022-12-18T21:25:15.291Z,95103.63
2022-12-18T21:27:43.372Z,95099.31
2022-12-18T21:30:15.308Z,95106.34
2022-12-18T21:32:43.662Z,95111.25
2022-12-18T21:35:12.103Z,95103.13
2022-12-18T21:37:39.997Z,95108.78
2022-12-18T21:40:08.750Z,95109.13
2022-12-18T21:42:55.285Z,95057.09
2022-12-18T21:45:23.328Z,95089.75
2022-12-18T21:47:51.802Z,95086.13
2022-12-18T21:50:19.755Z,95093.50
2022-12-18T21:52:47.671Z,95093.50
2022-12-18T21:55:21.988Z,95091.31
2022-12-18T21:58:00.360Z,95100.53
2022-12-18T22:06:06.721Z,95094.75
2022-12-18T22:08:42.066Z,95076.75
2022-12-18T22:11:13.504Z,95076.09
2022-12-18T22:13:41.651Z,95084.31
2022-12-18T22:16:09.899Z,95079.56
2022-12-18T22:18:37.796Z,95089.09
2022-12-18T22:21:06.351Z,95091.59
2022-12-18T22:23:34.485Z,95105.56
2022-12-18T22:26:03.723Z,95110.75
2022-12-18T22:28:50.007Z,95107.31
2022-12-18T22:31:17.902Z,95109.03
2022-12-18T22:33:46.028Z,95114.22
2022-12-18T22:36:14.632Z,95113.22
2022-12-18T22:38:46.748Z,95107.09
2022-12-18T22:41:14.662Z,95110.50
2022-12-18T22:43:42.509Z,95097.75
2022-12-18T22:46:18.056Z,95093.06
2022-12-18T22:48:50.486Z,95094.75
2022-12-18T22:51:19.908Z,95097.84
2022-12-18T22:53:48.077Z,95101.19
2022-12-18T22:56:21.080Z,95093.44
2022-12-18T22:58:50.598Z,95098.34
2022-12-18T23:01:24.692Z,95094.09
2022-12-18T23:03:53.733Z,95088.41
2022-12-18T23:06:23.107Z,95093.97
2022-12-18T23:08:56.093Z,95088.13
2022-12-18T23:11:25.796Z,95078.13
2022-12-18T23:13:54.272Z,95087.88
2022-12-18T23:16:25.885Z,95081.53
2022-12-18T23:18:55.397Z,95076.91
2022-12-18T23:21:23.810Z,95088.44
2022-12-18T23:23:52.170Z,95073.84
2022-12-18T23:26:23.000Z,95096.38
2022-12-18T23:28:52.586Z,95095.56
2022-12-18T23:31:29.696Z,95096.88
2022-12-18T23:33:59.804Z,95090.09
2022-12-18T23:36:28.761Z,95109.47
2022-12-18T23:39:00.868Z,95100.53
2022-12-18T23:41:30.841Z,95117.31
2022-12-18T23:44:00.166Z,95115.06
2022-12-18T23:46:33.524Z,95111.56
2022-12-18T23:49:03.324Z,95110.09
2022-12-18T23:51:33.802Z,95117.53
2022-12-18T23:54:06.330Z,95112.44
2022-12-18T23:56:35.925Z,95116.25
2022-12-18T23:59:03.797Z,95125.31
